Portada
METAR-TAF:

METAR-TAF

Aeroports :

Eureka, Nunavut, Canadà

latitud: 79-59N, longitud: 085-56W, altitud: 10 m

Observació

L'informe es va fer fa 47 minuts, a les 01:00 UTC
Vent 8 kt del Est/Sud-Est
Temperatura 14°C
Humitat 36%
Pressió 1014 hPa
Visibilitat: 24.1 km
Escasses núvols a una alçada de 3000 ft
Escasses núvols a una alçada de 15000 ft
Cel ennuvolat a una alçada de 28000 ft

METAR: CWEU 170100Z 11008KT 15SM FEW030 FEW150 BKN280 14/M01 A2994 RMK SC1AC1CI7 SC TR AC TR SLP146

Hora: 20:47 (01:47 UTC)


TAF: manca

Observacions i pronòstics meteorològics de més de 4000 aeroports (METAR i TAF).

Les estacions disponibles són els punts grocs i vermells al mapa.

Posi el ratolí al punt desitjat per veure el nom de l'estació.

Feu clic per veure les observacions i els pronòstics meteorològics.

Per canviar el mapa: feu clic els botons verds amb una creu de color negre per apropar; al botó verd amb un guió per allunyar la imatge; o en les fletxes verdes per a mapes adjacents.


METAR-TAF: